sensor_id;sensor_type;location;lat;lon;timestamp;temperature;humidity
28530;DHT22;15737;49.760;6.632;2022-10-17T00:00:38;12.00;99.90
28530;DHT22;15737;49.760;6.632;2022-10-17T00:03:04;12.00;99.90
28530;DHT22;15737;49.760;6.632;2022-10-17T00:05:29;12.00;99.90
28530;DHT22;15737;49.760;6.632;2022-10-17T00:07:55;11.90;99.90
28530;DHT22;15737;49.760;6.632;2022-10-17T00:10:21;11.90;99.90
28530;DHT22;15737;49.760;6.632;2022-10-17T00:12:46;11.80;99.90
28530;DHT22;15737;49.760;6.632;2022-10-17T00:15:19;11.80;99.90
28530;DHT22;15737;49.760;6.632;2022-10-17T00:17:45;11.80;99.90
28530;DHT22;15737;49.760;6.632;2022-10-17T00:20:12;11.80;99.90
28530;DHT22;15737;49.760;6.632;2022-10-17T00:22:37;11.90;99.90
28530;DHT22;15737;49.760;6.632;2022-10-17T00:25:03;11.90;99.90
28530;DHT22;15737;49.760;6.632;2022-10-17T00:27:29;11.80;99.90
28530;DHT22;15737;49.760;6.632;2022-10-17T00:29:54;11.80;99.90
28530;DHT22;15737;49.760;6.632;2022-10-17T00:32:21;11.80;99.90
28530;DHT22;15737;49.760;6.632;2022-10-17T00:34:46;11.80;99.90
28530;DHT22;15737;49.760;6.632;2022-10-17T00:37:12;11.90;99.90
28530;DHT22;15737;49.760;6.632;2022-10-17T00:39:38;11.90;99.90
28530;DHT22;15737;49.760;6.632;2022-10-17T00:42:03;11.90;99.90
28530;DHT22;15737;49.760;6.632;2022-10-17T00:46:56;12.10;99.90
28530;DHT22;15737;49.760;6.632;2022-10-17T00:52:01;12.20;99.90
28530;DHT22;15737;49.760;6.632;2022-10-17T00:54:30;12.20;99.90
28530;DHT22;15737;49.760;6.632;2022-10-17T00:56:58;12.00;99.90
28530;DHT22;15737;49.760;6.632;2022-10-17T00:59:24;12.00;99.90
28530;DHT22;15737;49.760;6.632;2022-10-17T01:01:59;11.90;99.90
28530;DHT22;15737;49.760;6.632;2022-10-17T01:04:24;11.80;99.90
28530;DHT22;15737;49.760;6.632;2022-10-17T01:06:50;11.70;99.90
28530;DHT22;15737;49.760;6.632;2022-10-17T01:09:16;11.70;99.90
28530;DHT22;15737;49.760;6.632;2022-10-17T01:11:51;11.70;99.90
28530;DHT22;15737;49.760;6.632;2022-10-17T01:25:53;11.60;99.90
28530;DHT22;15737;49.760;6.632;2022-10-17T01:31:22;11.50;99.90
28530;DHT22;15737;49.760;6.632;2022-10-17T01:34:12;11.50;99.90
28530;DHT22;15737;49.760;6.632;2022-10-17T01:36:50;11.50;99.90
28530;DHT22;15737;49.760;6.632;2022-10-17T01:39:24;11.60;99.90
28530;DHT22;15737;49.760;6.632;2022-10-17T01:44:43;11.60;99.90
28530;DHT22;15737;49.760;6.632;2022-10-17T01:47:14;11.50;99.90
28530;DHT22;15737;49.760;6.632;2022-10-17T01:49:43;11.50;99.90
28530;DHT22;15737;49.760;6.632;2022-10-17T01:52:13;11.40;99.90
28530;DHT22;15737;49.760;6.632;2022-10-17T01:54:43;11.40;99.90
28530;DHT22;15737;49.760;6.632;2022-10-17T01:57:28;11.40;99.90
28530;DHT22;15737;49.760;6.632;2022-10-17T01:59:55;11.50;99.90
28530;DHT22;15737;49.760;6.632;2022-10-17T02:02:22;11.50;99.90
28530;DHT22;15737;49.760;6.632;2022-10-17T02:04:50;11.50;99.90
28530;DHT22;15737;49.760;6.632;2022-10-17T02:07:16;11.50;99.90
28530;DHT22;15737;49.760;6.632;2022-10-17T02:09:42;11.40;99.90
28530;DHT22;15737;49.760;6.632;2022-10-17T02:12:29;11.50;99.90
28530;DHT22;15737;49.760;6.632;2022-10-17T02:24:13;11.40;99.90
28530;DHT22;15737;49.760;6.632;2022-10-17T02:26:51;11.50;99.90
28530;DHT22;15737;49.760;6.632;2022-10-17T02:29:20;11.50;99.90
28530;DHT22;15737;49.760;6.632;2022-10-17T02:31:50;11.50;99.90
28530;DHT22;15737;49.760;6.632;2022-10-17T02:34:23;11.50;99.90
28530;DHT22;15737;49.760;6.632;2022-10-17T02:36:57;11.50;99.90
28530;DHT22;15737;49.760;6.632;2022-10-17T02:39:24;11.50;99.90
28530;DHT22;15737;49.760;6.632;2022-10-17T02:41:51;11.50;99.90
28530;DHT22;15737;49.760;6.632;2022-10-17T02:44:19;11.40;99.90
28530;DHT22;15737;49.760;6.632;2022-10-17T02:46:51;11.50;99.90
28530;DHT22;15737;49.760;6.632;2022-10-17T02:49:27;11.40;99.90
28530;DHT22;15737;49.760;6.632;2022-10-17T02:54:46;11.40;99.90
28530;DHT22;15737;49.760;6.632;2022-10-17T02:57:40;11.40;99.90
28530;DHT22;15737;49.760;6.632;2022-10-17T03:00:18;11.30;99.90
28530;DHT22;15737;49.760;6.632;2022-10-17T03:02:57;11.30;99.90
28530;DHT22;15737;49.760;6.632;2022-10-17T03:05:29;11.20;99.90
28530;DHT22;15737;49.760;6.632;2022-10-17T03:08:05;11.20;99.90
28530;DHT22;15737;49.760;6.632;2022-10-17T03:10:34;11.20;99.90
28530;DHT22;15737;49.760;6.632;2022-10-17T03:13:01;11.40;99.90
28530;DHT22;15737;49.760;6.632;2022-10-17T03:15:27;11.50;99.90
28530;DHT22;15737;49.760;6.632;2022-10-17T03:18:04;11.50;99.90
28530;DHT22;15737;49.760;6.632;2022-10-17T03:20:32;11.50;99.90
28530;DHT22;15737;49.760;6.632;2022-10-17T03:22:58;11.60;99.90
28530;DHT22;15737;49.760;6.632;2022-10-17T03:25:24;11.60;99.90
28530;DHT22;15737;49.760;6.632;2022-10-17T03:27:50;11.60;99.90
28530;DHT22;15737;49.760;6.632;2022-10-17T03:30:16;11.50;99.90
28530;DHT22;15737;49.760;6.632;2022-10-17T03:32:41;11.50;99.90
28530;DHT22;15737;49.760;6.632;2022-10-17T03:35:07;11.50;99.90
28530;DHT22;15737;49.760;6.632;2022-10-17T03:37:32;11.50;99.90
28530;DHT22;15737;49.760;6.632;2022-10-17T03:39:58;11.50;99.90
28530;DHT22;15737;49.760;6.632;2022-10-17T03:42:23;11.40;99.90
28530;DHT22;15737;49.760;6.632;2022-10-17T03:44:49;11.40;99.90
28530;DHT22;15737;49.760;6.632;2022-10-17T03:47:14;11.30;99.90
28530;DHT22;15737;49.760;6.632;2022-10-17T03:49:40;11.30;99.90
28530;DHT22;15737;49.760;6.632;2022-10-17T03:52:09;11.30;99.90
28530;DHT22;15737;49.760;6.632;2022-10-17T03:54:34;11.20;99.90
28530;DHT22;15737;49.760;6.632;2022-10-17T03:57:00;11.20;99.90
28530;DHT22;15737;49.760;6.632;2022-10-17T04:01:58;11.20;99.90
28530;DHT22;15737;49.760;6.632;2022-10-17T04:04:25;11.30;99.90
28530;DHT22;15737;49.760;6.632;2022-10-17T04:06:50;11.30;99.90
28530;DHT22;15737;49.760;6.632;2022-10-17T04:09:16;11.30;99.90
28530;DHT22;15737;49.760;6.632;2022-10-17T04:11:41;11.30;99.90
28530;DHT22;15737;49.760;6.632;2022-10-17T04:14:08;11.30;99.90
28530;DHT22;15737;49.760;6.632;2022-10-17T04:16:34;11.30;99.90
28530;DHT22;15737;49.760;6.632;2022-10-17T04:18:59;11.30;99.90
28530;DHT22;15737;49.760;6.632;2022-10-17T04:21:26;11.30;99.90
28530;DHT22;15737;49.760;6.632;2022-10-17T04:23:57;11.20;99.90
28530;DHT22;15737;49.760;6.632;2022-10-17T04:26:23;11.20;99.90
28530;DHT22;15737;49.760;6.632;2022-10-17T04:28:49;11.20;99.90
28530;DHT22;15737;49.760;6.632;2022-10-17T04:31:17;11.20;99.90
28530;DHT22;15737;49.760;6.632;2022-10-17T04:33:46;11.20;99.90
28530;DHT22;15737;49.760;6.632;2022-10-17T04:36:14;11.10;99.90
28530;DHT22;15737;49.760;6.632;2022-10-17T04:38:40;11.10;99.90
28530;DHT22;15737;49.760;6.632;2022-10-17T04:41:09;11.00;99.90
28530;DHT22;15737;49.760;6.632;2022-10-17T04:43:36;11.10;99.90
28530;DHT22;15737;49.760;6.632;2022-10-17T04:46:05;11.10;99.90
28530;DHT22;15737;49.760;6.632;2022-10-17T04:48:31;11.10;99.90
28530;DHT22;15737;49.760;6.632;2022-10-17T04:50:59;11.00;99.90
28530;DHT22;15737;49.760;6.632;2022-10-17T04:53:25;11.00;99.90
28530;DHT22;15737;49.760;6.632;2022-10-17T04:55:52;11.10;99.90
28530;DHT22;15737;49.760;6.632;2022-10-17T04:58:18;11.40;99.90
28530;DHT22;15737;49.760;6.632;2022-10-17T05:00:44;11.60;99.90
28530;DHT22;15737;49.760;6.632;2022-10-17T05:03:13;11.60;99.90
28530;DHT22;15737;49.760;6.632;2022-10-17T05:05:40;11.80;99.90
28530;DHT22;15737;49.760;6.632;2022-10-17T05:08:06;11.70;99.90
28530;DHT22;15737;49.760;6.632;2022-10-17T05:10:41;11.60;99.90
28530;DHT22;15737;49.760;6.632;2022-10-17T05:13:07;11.40;99.90
28530;DHT22;15737;49.760;6.632;2022-10-17T05:15:33;11.20;99.90
28530;DHT22;15737;49.760;6.632;2022-10-17T05:17:59;11.00;99.90
28530;DHT22;15737;49.760;6.632;2022-10-17T05:20:25;11.00;99.90
28530;DHT22;15737;49.760;6.632;2022-10-17T05:22:51;10.90;99.90
28530;DHT22;15737;49.760;6.632;2022-10-17T05:25:16;11.00;99.90
28530;DHT22;15737;49.760;6.632;2022-10-17T05:27:42;11.00;99.90
28530;DHT22;15737;49.760;6.632;2022-10-17T05:30:08;11.00;99.90
28530;DHT22;15737;49.760;6.632;2022-10-17T05:32:34;11.00;99.90
28530;DHT22;15737;49.760;6.632;2022-10-17T05:34:59;10.90;99.90
28530;DHT22;15737;49.760;6.632;2022-10-17T05:37:25;10.90;99.90
28530;DHT22;15737;49.760;6.632;2022-10-17T05:39:53;10.90;99.90
28530;DHT22;15737;49.760;6.632;2022-10-17T05:42:18;11.00;99.90
28530;DHT22;15737;49.760;6.632;2022-10-17T05:44:44;11.00;99.90
28530;DHT22;15737;49.760;6.632;2022-10-17T05:47:09;11.20;99.90
28530;DHT22;15737;49.760;6.632;2022-10-17T05:49:35;11.30;99.90
28530;DHT22;15737;49.760;6.632;2022-10-17T05:52:01;11.30;99.90
28530;DHT22;15737;49.760;6.632;2022-10-17T05:54:26;11.30;99.90
28530;DHT22;15737;49.760;6.632;2022-10-17T05:56:53;11.30;99.90
28530;DHT22;15737;49.760;6.632;2022-10-17T05:59:19;11.40;99.90
28530;DHT22;15737;49.760;6.632;2022-10-17T06:01:45;11.50;99.90
28530;DHT22;15737;49.760;6.632;2022-10-17T06:04:11;11.50;99.90
28530;DHT22;15737;49.760;6.632;2022-10-17T06:06:37;11.50;99.90
28530;DHT22;15737;49.760;6.632;2022-10-17T06:09:03;11.60;99.90
28530;DHT22;15737;49.760;6.632;2022-10-17T06:11:29;11.60;99.90
28530;DHT22;15737;49.760;6.632;2022-10-17T06:13:55;11.70;99.90
28530;DHT22;15737;49.760;6.632;2022-10-17T06:16:21;11.90;99.90
28530;DHT22;15737;49.760;6.632;2022-10-17T06:18:46;12.50;99.90
28530;DHT22;15737;49.760;6.632;2022-10-17T06:21:14;13.10;99.90
28530;DHT22;15737;49.760;6.632;2022-10-17T06:23:41;14.00;99.90
28530;DHT22;15737;49.760;6.632;2022-10-17T06:26:07;14.30;99.90
28530;DHT22;15737;49.760;6.632;2022-10-17T06:28:33;14.50;99.90
28530;DHT22;15737;49.760;6.632;2022-10-17T06:30:58;14.60;99.90
28530;DHT22;15737;49.760;6.632;2022-10-17T06:33:24;14.90;99.90
28530;DHT22;15737;49.760;6.632;2022-10-17T06:35:54;15.00;99.90
28530;DHT22;15737;49.760;6.632;2022-10-17T06:38:20;15.40;99.90
28530;DHT22;15737;49.760;6.632;2022-10-17T06:40:46;16.40;99.90
28530;DHT22;15737;49.760;6.632;2022-10-17T06:43:12;17.60;99.90
28530;DHT22;15737;49.760;6.632;2022-10-17T06:45:38;18.50;99.90
28530;DHT22;15737;49.760;6.632;2022-10-17T06:48:04;19.00;99.90
28530;DHT22;15737;49.760;6.632;2022-10-17T06:50:30;19.60;99.90
28530;DHT22;15737;49.760;6.632;2022-10-17T06:52:55;20.00;99.90
28530;DHT22;15737;49.760;6.632;2022-10-17T06:55:21;19.60;99.90
28530;DHT22;15737;49.760;6.632;2022-10-17T06:57:47;18.80;99.90
28530;DHT22;15737;49.760;6.632;2022-10-17T07:00:12;18.30;99.90
28530;DHT22;15737;49.760;6.632;2022-10-17T07:02:38;18.10;99.90
28530;DHT22;15737;49.760;6.632;2022-10-17T07:07:37;17.80;99.90
28530;DHT22;15737;49.760;6.632;2022-10-17T07:10:02;18.20;99.90
28530;DHT22;15737;49.760;6.632;2022-10-17T07:12:33;18.60;99.90
28530;DHT22;15737;49.760;6.632;2022-10-17T07:14:59;18.60;99.90
28530;DHT22;15737;49.760;6.632;2022-10-17T07:17:24;18.40;99.90
28530;DHT22;15737;49.760;6.632;2022-10-17T07:19:50;18.20;99.90
28530;DHT22;15737;49.760;6.632;2022-10-17T07:22:15;18.50;99.90
28530;DHT22;15737;49.760;6.632;2022-10-17T07:24:41;18.90;99.90
28530;DHT22;15737;49.760;6.632;2022-10-17T07:27:06;19.40;99.90
28530;DHT22;15737;49.760;6.632;2022-10-17T07:29:32;20.50;99.90
28530;DHT22;15737;49.760;6.632;2022-10-17T07:31:57;21.40;99.90
28530;DHT22;15737;49.760;6.632;2022-10-17T07:34:23;22.80;99.90
28530;DHT22;15737;49.760;6.632;2022-10-17T07:36:52;24.60;99.90
28530;DHT22;15737;49.760;6.632;2022-10-17T07:39:18;26.30;99.90
28530;DHT22;15737;49.760;6.632;2022-10-17T07:41:43;27.40;99.90
28530;DHT22;15737;49.760;6.632;2022-10-17T07:44:09;28.30;99.90
28530;DHT22;15737;49.760;6.632;2022-10-17T07:46:34;28.40;99.90
28530;DHT22;15737;49.760;6.632;2022-10-17T07:49:00;28.80;97.80
28530;DHT22;15737;49.760;6.632;2022-10-17T07:51:25;28.60;97.70
28530;DHT22;15737;49.760;6.632;2022-10-17T07:53:52;29.60;96.70
28530;DHT22;15737;49.760;6.632;2022-10-17T07:56:17;30.90;93.60
28530;DHT22;15737;49.760;6.632;2022-10-17T07:58:43;30.70;93.00
28530;DHT22;15737;49.760;6.632;2022-10-17T08:01:10;30.70;91.30
28530;DHT22;15737;49.760;6.632;2022-10-17T08:03:39;30.20;91.30
28530;DHT22;15737;49.760;6.632;2022-10-17T08:06:05;30.40;91.00
28530;DHT22;15737;49.760;6.632;2022-10-17T08:08:30;30.50;90.10
28530;DHT22;15737;49.760;6.632;2022-10-17T08:11:01;30.40;90.40
28530;DHT22;15737;49.760;6.632;2022-10-17T08:13:27;30.10;90.40
28530;DHT22;15737;49.760;6.632;2022-10-17T08:15:53;31.30;89.70
28530;DHT22;15737;49.760;6.632;2022-10-17T08:18:18;32.10;86.10
28530;DHT22;15737;49.760;6.632;2022-10-17T08:20:44;32.50;83.00
28530;DHT22;15737;49.760;6.632;2022-10-17T08:23:10;32.70;81.80
28530;DHT22;15737;49.760;6.632;2022-10-17T08:25:38;33.40;78.30
28530;DHT22;15737;49.760;6.632;2022-10-17T08:28:04;33.20;76.80
28530;DHT22;15737;49.760;6.632;2022-10-17T08:30:30;33.00;75.80
28530;DHT22;15737;49.760;6.632;2022-10-17T08:32:56;32.70;72.00
28530;DHT22;15737;49.760;6.632;2022-10-17T08:35:21;32.60;74.60
28530;DHT22;15737;49.760;6.632;2022-10-17T08:37:48;33.10;73.50
28530;DHT22;15737;49.760;6.632;2022-10-17T08:40:21;33.50;69.80
28530;DHT22;15737;49.760;6.632;2022-10-17T08:43:07;32.80;65.90
28530;DHT22;15737;49.760;6.632;2022-10-17T08:45:46;31.80;69.90
28530;DHT22;15737;49.760;6.632;2022-10-17T08:48:17;31.60;70.10
28530;DHT22;15737;49.760;6.632;2022-10-17T08:50:46;31.60;70.00
28530;DHT22;15737;49.760;6.632;2022-10-17T08:53:34;31.60;68.00
28530;DHT22;15737;49.760;6.632;2022-10-17T08:56:06;30.60;68.20
28530;DHT22;15737;49.760;6.632;2022-10-17T08:58:37;28.90;73.70
28530;DHT22;15737;49.760;6.632;2022-10-17T09:17:54;27.40;79.20
28530;DHT22;15737;49.760;6.632;2022-10-17T09:20:23;27.90;78.30
28530;DHT22;15737;49.760;6.632;2022-10-17T09:23:09;28.20;77.00
28530;DHT22;15737;49.760;6.632;2022-10-17T09:25:44;28.20;78.30
28530;DHT22;15737;49.760;6.632;2022-10-17T09:30:48;28.80;76.40
28530;DHT22;15737;49.760;6.632;2022-10-17T09:33:22;28.90;75.90
28530;DHT22;15737;49.760;6.632;2022-10-17T09:35:49;28.90;75.20
28530;DHT22;15737;49.760;6.632;2022-10-17T09:38:20;28.20;77.40
28530;DHT22;15737;49.760;6.632;2022-10-17T09:40:55;28.30;76.80
28530;DHT22;15737;49.760;6.632;2022-10-17T09:43:21;28.00;77.60
28530;DHT22;15737;49.760;6.632;2022-10-17T09:46:03;28.70;76.40
28530;DHT22;15737;49.760;6.632;2022-10-17T09:48:38;29.00;74.60
28530;DHT22;15737;49.760;6.632;2022-10-17T09:51:08;28.50;75.90
28530;DHT22;15737;49.760;6.632;2022-10-17T09:53:40;28.10;76.70
28530;DHT22;15737;49.760;6.632;2022-10-17T09:56:12;27.70;77.50
28530;DHT22;15737;49.760;6.632;2022-10-17T09:58:40;27.20;79.90
28530;DHT22;15737;49.760;6.632;2022-10-17T10:01:24;27.50;79.40
28530;DHT22;15737;49.760;6.632;2022-10-17T10:04:14;27.40;79.50
28530;DHT22;15737;49.760;6.632;2022-10-17T10:09:27;28.50;78.40
28530;DHT22;15737;49.760;6.632;2022-10-17T10:11:54;28.40;77.80
28530;DHT22;15737;49.760;6.632;2022-10-17T10:16:54;25.70;85.40
28530;DHT22;15737;49.760;6.632;2022-10-17T10:19:35;24.40;90.00
28530;DHT22;15737;49.760;6.632;2022-10-17T10:22:12;23.40;92.00
28530;DHT22;15737;49.760;6.632;2022-10-17T10:24:39;22.80;93.40
28530;DHT22;15737;49.760;6.632;2022-10-17T10:27:14;23.10;93.80
28530;DHT22;15737;49.760;6.632;2022-10-17T10:29:50;23.70;93.50
28530;DHT22;15737;49.760;6.632;2022-10-17T10:32:28;24.80;92.60
28530;DHT22;15737;49.760;6.632;2022-10-17T10:35:22;26.90;89.80
28530;DHT22;15737;49.760;6.632;2022-10-17T10:37:57;27.60;84.90
28530;DHT22;15737;49.760;6.632;2022-10-17T10:40:37;27.20;85.90
28530;DHT22;15737;49.760;6.632;2022-10-17T10:43:04;27.30;85.20
28530;DHT22;15737;49.760;6.632;2022-10-17T10:48:25;28.60;82.70
28530;DHT22;15737;49.760;6.632;2022-10-17T10:50:58;29.60;80.60
28530;DHT22;15737;49.760;6.632;2022-10-17T10:56:24;29.00;77.70
28530;DHT22;15737;49.760;6.632;2022-10-17T10:58:54;27.80;80.10
28530;DHT22;15737;49.760;6.632;2022-10-17T11:01:25;27.60;82.50
28530;DHT22;15737;49.760;6.632;2022-10-17T11:04:20;28.30;82.70
28530;DHT22;15737;49.760;6.632;2022-10-17T11:06:51;29.20;80.90
28530;DHT22;15737;49.760;6.632;2022-10-17T11:09:41;29.20;78.70
28530;DHT22;15737;49.760;6.632;2022-10-17T11:12:16;27.20;81.90
28530;DHT22;15737;49.760;6.632;2022-10-17T11:14:52;25.50;87.40
28530;DHT22;15737;49.760;6.632;2022-10-17T11:20:21;24.50;91.20
28530;DHT22;15737;49.760;6.632;2022-10-17T11:23:22;24.60;91.30
28530;DHT22;15737;49.760;6.632;2022-10-17T11:25:51;25.10;91.20
28530;DHT22;15737;49.760;6.632;2022-10-17T11:28:19;25.70;90.80
28530;DHT22;15737;49.760;6.632;2022-10-17T11:30:49;26.00;90.20
28530;DHT22;15737;49.760;6.632;2022-10-17T11:33:22;25.90;90.10
28530;DHT22;15737;49.760;6.632;2022-10-17T11:35:51;25.70;90.20
28530;DHT22;15737;49.760;6.632;2022-10-17T11:38:34;26.00;90.30
28530;DHT22;15737;49.760;6.632;2022-10-17T11:41:01;26.60;89.60
28530;DHT22;15737;49.760;6.632;2022-10-17T11:43:37;27.30;86.80
28530;DHT22;15737;49.760;6.632;2022-10-17T11:46:16;27.30;86.70
28530;DHT22;15737;49.760;6.632;2022-10-17T11:48:56;27.40;86.80
28530;DHT22;15737;49.760;6.632;2022-10-17T11:51:26;27.80;86.50
28530;DHT22;15737;49.760;6.632;2022-10-17T12:03:06;28.20;84.70
28530;DHT22;15737;49.760;6.632;2022-10-17T12:06:19;28.50;84.30
28530;DHT22;15737;49.760;6.632;2022-10-17T12:09:23;28.60;83.50
28530;DHT22;15737;49.760;6.632;2022-10-17T12:11:58;28.90;83.40
28530;DHT22;15737;49.760;6.632;2022-10-17T12:14:36;28.30;82.40
28530;DHT22;15737;49.760;6.632;2022-10-17T12:17:04;27.30;84.40
28530;DHT22;15737;49.760;6.632;2022-10-17T12:19:34;26.80;87.40
28530;DHT22;15737;49.760;6.632;2022-10-17T12:22:23;27.40;86.80
28530;DHT22;15737;49.760;6.632;2022-10-17T12:30:00;30.10;79.50
28530;DHT22;15737;49.760;6.632;2022-10-17T12:32:27;30.60;79.60
28530;DHT22;15737;49.760;6.632;2022-10-17T12:34:55;31.10;77.30
28530;DHT22;15737;49.760;6.632;2022-10-17T12:45:53;27.00;83.60
28530;DHT22;15737;49.760;6.632;2022-10-17T12:51:10;25.00;90.00
28530;DHT22;15737;49.760;6.632;2022-10-17T12:56:19;24.50;91.60
28530;DHT22;15737;49.760;6.632;2022-10-17T12:58:49;24.10;92.20
28530;DHT22;15737;49.760;6.632;2022-10-17T13:01:18;23.80;93.10
28530;DHT22;15737;49.760;6.632;2022-10-17T13:03:49;23.60;93.70
28530;DHT22;15737;49.760;6.632;2022-10-17T13:06:22;23.60;93.90
28530;DHT22;15737;49.760;6.632;2022-10-17T13:11:43;23.50;94.70
28530;DHT22;15737;49.760;6.632;2022-10-17T13:14:18;23.60;94.90
28530;DHT22;15737;49.760;6.632;2022-10-17T13:17:12;23.70;94.90
28530;DHT22;15737;49.760;6.632;2022-10-17T13:19:48;23.80;95.00
28530;DHT22;15737;49.760;6.632;2022-10-17T13:22:22;23.90;94.90
28530;DHT22;15737;49.760;6.632;2022-10-17T13:24:50;23.80;95.20
28530;DHT22;15737;49.760;6.632;2022-10-17T13:27:31;23.70;95.60
28530;DHT22;15737;49.760;6.632;2022-10-17T13:30:00;23.80;95.70
28530;DHT22;15737;49.760;6.632;2022-10-17T13:32:33;23.90;95.70
28530;DHT22;15737;49.760;6.632;2022-10-17T13:35:08;24.30;95.70
28530;DHT22;15737;49.760;6.632;2022-10-17T13:37:36;24.70;95.20
28530;DHT22;15737;49.760;6.632;2022-10-17T13:40:04;25.30;94.80
28530;DHT22;15737;49.760;6.632;2022-10-17T13:42:36;25.70;94.20
28530;DHT22;15737;49.760;6.632;2022-10-17T13:45:03;26.20;93.80
28530;DHT22;15737;49.760;6.632;2022-10-17T13:47:35;26.60;93.10
28530;DHT22;15737;49.760;6.632;2022-10-17T13:50:01;26.80;92.10
28530;DHT22;15737;49.760;6.632;2022-10-17T13:52:28;26.80;92.50
28530;DHT22;15737;49.760;6.632;2022-10-17T13:54:55;26.70;92.10
28530;DHT22;15737;49.760;6.632;2022-10-17T13:57:30;26.50;91.90
28530;DHT22;15737;49.760;6.632;2022-10-17T14:00:02;26.00;92.20
28530;DHT22;15737;49.760;6.632;2022-10-17T14:02:31;25.50;92.90
28530;DHT22;15737;49.760;6.632;2022-10-17T14:05:10;25.40;93.60
28530;DHT22;15737;49.760;6.632;2022-10-17T14:07:55;25.90;93.40
28530;DHT22;15737;49.760;6.632;2022-10-17T14:10:29;26.60;92.50
28530;DHT22;15737;49.760;6.632;2022-10-17T14:12:55;27.10;90.80
28530;DHT22;15737;49.760;6.632;2022-10-17T14:15:25;27.00;91.00
28530;DHT22;15737;49.760;6.632;2022-10-17T14:17:57;27.00;90.90
28530;DHT22;15737;49.760;6.632;2022-10-17T14:20:23;26.90;90.90
28530;DHT22;15737;49.760;6.632;2022-10-17T14:22:50;26.30;91.40
28530;DHT22;15737;49.760;6.632;2022-10-17T14:25:45;26.00;91.70
28530;DHT22;15737;49.760;6.632;2022-10-17T14:30:42;25.60;92.50
28530;DHT22;15737;49.760;6.632;2022-10-17T14:33:14;25.40;92.70
28530;DHT22;15737;49.760;6.632;2022-10-17T14:35:52;25.10;93.20
28530;DHT22;15737;49.760;6.632;2022-10-17T14:38:43;24.70;93.60
28530;DHT22;15737;49.760;6.632;2022-10-17T14:41:26;24.30;94.60
28530;DHT22;15737;49.760;6.632;2022-10-17T14:44:02;24.00;94.80
28530;DHT22;15737;49.760;6.632;2022-10-17T14:46:29;23.80;95.10
28530;DHT22;15737;49.760;6.632;2022-10-17T14:49:01;23.60;95.50
28530;DHT22;15737;49.760;6.632;2022-10-17T14:51:27;23.40;96.10
28530;DHT22;15737;49.760;6.632;2022-10-17T14:54:16;23.10;96.60
28530;DHT22;15737;49.760;6.632;2022-10-17T14:56:49;22.90;96.90
28530;DHT22;15737;49.760;6.632;2022-10-17T14:59:15;22.60;97.50
28530;DHT22;15737;49.760;6.632;2022-10-17T15:01:47;22.50;98.10
28530;DHT22;15737;49.760;6.632;2022-10-17T15:04:13;22.40;98.50
28530;DHT22;15737;49.760;6.632;2022-10-17T15:06:39;22.30;98.90
28530;DHT22;15737;49.760;6.632;2022-10-17T15:09:05;22.30;99.20
28530;DHT22;15737;49.760;6.632;2022-10-17T15:11:30;22.30;99.40
28530;DHT22;15737;49.760;6.632;2022-10-17T15:13:56;22.30;99.70
28530;DHT22;15737;49.760;6.632;2022-10-17T15:16:26;22.20;99.90
28530;DHT22;15737;49.760;6.632;2022-10-17T15:18:54;22.10;99.90
28530;DHT22;15737;49.760;6.632;2022-10-17T15:21:22;22.00;99.90
28530;DHT22;15737;49.760;6.632;2022-10-17T15:23:48;21.90;99.90
28530;DHT22;15737;49.760;6.632;2022-10-17T15:26:22;21.80;99.90
28530;DHT22;15737;49.760;6.632;2022-10-17T15:28:49;21.80;99.90
28530;DHT22;15737;49.760;6.632;2022-10-17T15:31:18;21.70;99.90
28530;DHT22;15737;49.760;6.632;2022-10-17T15:33:44;21.60;99.90
28530;DHT22;15737;49.760;6.632;2022-10-17T15:36:39;21.50;99.90
28530;DHT22;15737;49.760;6.632;2022-10-17T15:39:06;21.30;99.90
28530;DHT22;15737;49.760;6.632;2022-10-17T15:41:32;21.20;99.90
28530;DHT22;15737;49.760;6.632;2022-10-17T15:43:58;21.10;99.90
28530;DHT22;15737;49.760;6.632;2022-10-17T15:46:29;21.00;99.90
28530;DHT22;15737;49.760;6.632;2022-10-17T15:49:01;20.90;99.90
28530;DHT22;15737;49.760;6.632;2022-10-17T15:51:26;20.80;99.90
28530;DHT22;15737;49.760;6.632;2022-10-17T15:53:52;20.70;99.90
28530;DHT22;15737;49.760;6.632;2022-10-17T15:56:27;20.60;99.90
28530;DHT22;15737;49.760;6.632;2022-10-17T16:01:33;20.30;99.90
28530;DHT22;15737;49.760;6.632;2022-10-17T16:03:59;20.20;99.90
28530;DHT22;15737;49.760;6.632;2022-10-17T16:06:25;20.20;99.90
28530;DHT22;15737;49.760;6.632;2022-10-17T16:08:51;20.00;99.90
28530;DHT22;15737;49.760;6.632;2022-10-17T16:11:30;19.90;99.90
28530;DHT22;15737;49.760;6.632;2022-10-17T16:16:29;19.70;99.90
28530;DHT22;15737;49.760;6.632;2022-10-17T16:18:55;19.60;99.90
28530;DHT22;15737;49.760;6.632;2022-10-17T16:21:24;19.50;99.90
28530;DHT22;15737;49.760;6.632;2022-10-17T16:23:50;19.50;99.90
28530;DHT22;15737;49.760;6.632;2022-10-17T16:26:15;19.40;99.90
28530;DHT22;15737;49.760;6.632;2022-10-17T16:28:44;19.30;99.90
28530;DHT22;15737;49.760;6.632;2022-10-17T16:31:30;19.20;99.90
28530;DHT22;15737;49.760;6.632;2022-10-17T16:33:58;19.10;99.90
28530;DHT22;15737;49.760;6.632;2022-10-17T16:36:24;19.00;99.90
28530;DHT22;15737;49.760;6.632;2022-10-17T16:38:50;19.00;99.90
28530;DHT22;15737;49.760;6.632;2022-10-17T16:41:31;18.90;99.90
28530;DHT22;15737;49.760;6.632;2022-10-17T16:46:30;18.80;99.90
28530;DHT22;15737;49.760;6.632;2022-10-17T16:48:56;18.80;99.90
28530;DHT22;15737;49.760;6.632;2022-10-17T16:51:22;18.70;99.90
28530;DHT22;15737;49.760;6.632;2022-10-17T16:53:52;18.60;99.90
28530;DHT22;15737;49.760;6.632;2022-10-17T16:56:23;18.50;99.90
28530;DHT22;15737;49.760;6.632;2022-10-17T16:59:01;18.40;99.90
28530;DHT22;15737;49.760;6.632;2022-10-17T17:01:26;18.30;99.90
28530;DHT22;15737;49.760;6.632;2022-10-17T17:03:54;18.20;99.90
28530;DHT22;15737;49.760;6.632;2022-10-17T17:06:22;18.10;99.90
28530;DHT22;15737;49.760;6.632;2022-10-17T17:08:49;18.10;99.90
28530;DHT22;15737;49.760;6.632;2022-10-17T17:11:16;17.90;99.90
28530;DHT22;15737;49.760;6.632;2022-10-17T17:13:48;17.90;99.90
28530;DHT22;15737;49.760;6.632;2022-10-17T17:16:22;17.90;99.90
28530;DHT22;15737;49.760;6.632;2022-10-17T17:18:49;17.80;99.90
28530;DHT22;15737;49.760;6.632;2022-10-17T17:21:17;17.80;99.90
28530;DHT22;15737;49.760;6.632;2022-10-17T17:23:43;17.80;99.90
28530;DHT22;15737;49.760;6.632;2022-10-17T17:26:14;17.70;99.90
28530;DHT22;15737;49.760;6.632;2022-10-17T17:28:40;17.70;99.90
28530;DHT22;15737;49.760;6.632;2022-10-17T17:31:09;17.70;99.90
28530;DHT22;15737;49.760;6.632;2022-10-17T17:33:39;17.70;99.90
28530;DHT22;15737;49.760;6.632;2022-10-17T17:36:06;17.70;99.90
28530;DHT22;15737;49.760;6.632;2022-10-17T17:38:33;17.80;99.90
28530;DHT22;15737;49.760;6.632;2022-10-17T17:40:59;17.80;99.90